TimeAEST,TemperatureF,Dew PointF,Humidity,Sea Level PressureIn,VisibilityMPH,Wind Direction,Wind SpeedMPH,Gust SpeedMPH,PrecipitationIn,Events,Conditions,WindDirDegrees,DateUTC
12:00 AM,42,38,79,30.19,,South,4.6,,,,,170,2012-10-03 14:00:00
12:00 AM,42.8,37.4,81,30.18,6.2,South,4.6,-,N/A,,Unknown,170,2012-10-03 14:00:00
12:30 AM,42.8,39.2,87,30.18,6.2,ESE,6.9,-,N/A,,Unknown,120,2012-10-03 14:30:00
1:00 AM,42,39,86,30.18,,SE,6.9,,,,,130,2012-10-03 15:00:00
1:00 AM,42.8,39.2,87,30.18,6.2,SE,6.9,-,N/A,,Unknown,130,2012-10-03 15:00:00
1:30 AM,42.8,37.4,81,30.18,6.2,SE,4.6,-,N/A,,Unknown,140,2012-10-03 15:30:00
2:00 AM,41.0,39.2,93,30.18,6.2,Calm,Calm,-,N/A,,Unknown,0,2012-10-03 16:00:00
2:30 AM,41.0,37.4,87,30.15,6.2,Calm,Calm,-,N/A,,Unknown,0,2012-10-03 16:30:00
3:00 AM,41,38,87,30.16,,SSE,1.2,,,,,160,2012-10-03 17:00:00
3:00 AM,41.0,39.2,93,30.15,6.2,SSE,1.2,-,N/A,,Unknown,160,2012-10-03 17:00:00
3:30 AM,41.0,37.4,87,30.15,6.2,Calm,Calm,-,N/A,,Unknown,0,2012-10-03 17:30:00
4:00 AM,39,38,92,30.13,,Calm,Calm,,,,,,2012-10-03 18:00:00
4:00 AM,39.2,37.4,93,30.12,6.2,Calm,Calm,-,N/A,,Unknown,0,2012-10-03 18:00:00
4:30 AM,39.2,37.4,93,30.12,6.2,Calm,Calm,-,N/A,Fog,Clear,0,2012-10-03 18:30:00
5:00 AM,39.2,37.4,93,30.12,6.2,Calm,Calm,-,N/A,Fog,Patches of Fog,0,2012-10-03 19:00:00
5:30 AM,39.2,37.4,93,30.12,6.2,Calm,Calm,-,N/A,Fog,Patches of Fog,0,2012-10-03 19:30:00
6:00 AM,38,38,98,30.14,,Calm,Calm,,,,,,2012-10-03 20:00:00
6:00 AM,37.4,37.4,100,30.15,6.2,Calm,Calm,-,N/A,Fog,Patches of Fog,0,2012-10-03 20:00:00
6:20 AM,39.2,37.4,93,30.15,6.2,Calm,Calm,-,N/A,Fog,Patches of Fog,0,2012-10-03 20:20:00
6:30 AM,41.0,37.4,87,30.15,6.2,Calm,Calm,-,N/A,Fog,Partly Cloudy,0,2012-10-03 20:30:00
7:00 AM,44,42,92,30.14,,Calm,Calm,,,,,,2012-10-03 21:00:00
7:00 AM,44.6,42.8,93,30.15,-9999.0,Calm,Calm,-,N/A,,Clear,0,2012-10-03 21:00:00
7:30 AM,51.8,44.6,76,30.15,-9999.0,ESE,5.8,-,N/A,,Clear,120,2012-10-03 21:30:00
8:00 AM,55.4,42.8,63,30.15,-9999.0,Calm,Calm,-,N/A,,Clear,0,2012-10-03 22:00:00
8:30 AM,59.0,42.8,55,30.15,-9999.0,NW,2.3,-,N/A,,Clear,320,2012-10-03 22:30:00
9:00 AM,65,42,31,30.15,19,NW,6.9,,,,Partly Cloudy,310,2012-10-03 23:00:00
9:00 AM,66.2,42.8,43,30.15,-9999.0,NW,6.9,-,N/A,,Clear,310,2012-10-03 23:00:00
9:30 AM,68.0,42.8,40,30.12,-9999.0,NNW,16.1,-,N/A,,Clear,330,2012-10-03 23:30:00
10:00 AM,69.8,41.0,35,30.12,-9999.0,NNW,17.3,-,N/A,,Clear,330,2012-10-04 00:00:00
10:30 AM,71.6,42.8,35,30.09,-9999.0,NNW,15.0,-,N/A,,Clear,330,2012-10-04 00:30:00
11:00 AM,73.4,37.4,27,30.09,-9999.0,WNW,17.3,-,N/A,,Clear,300,2012-10-04 01:00:00
11:30 AM,73.4,35.6,25,30.06,6.2,WNW,20.7,-,N/A,,Partly Cloudy,300,2012-10-04 01:30:00
12:00 PM,75,36,15,30.06,,NW,19.6,,,,,310,2012-10-04 02:00:00
12:04 PM,75.2,35.6,24,30.06,6.2,WNW,18.4,29.9,N/A,,Partly Cloudy,300,2012-10-04 02:04:00
12:30 PM,75.2,35.6,24,30.04,6.2,WNW,21.9,-,N/A,,Partly Cloudy,290,2012-10-04 02:30:00
1:00 PM,76,35,13,30.03,,WNW,21.9,,,,,290,2012-10-04 03:00:00
1:00 PM,75.2,35.6,24,30.04,-9999.0,WNW,21.9,-,N/A,,Clear,290,2012-10-04 03:00:00
1:09 PM,75.2,33.8,22,30.04,-9999.0,West,20.7,32.2,N/A,,Clear,280,2012-10-04 03:09:00
1:30 PM,75.2,33.8,22,30.01,-9999.0,WNW,23.0,-,N/A,,Clear,290,2012-10-04 03:30:00
2:01 PM,75.2,33.8,22,30.01,-9999.0,WNW,20.7,32.2,N/A,,Clear,290,2012-10-04 04:01:00
2:21 PM,75.2,32.0,21,30.01,-9999.0,West,23.0,-,N/A,,Clear,260,2012-10-04 04:21:00
2:30 PM,75.2,33.8,22,30.01,-9999.0,West,21.9,-,N/A,,Clear,270,2012-10-04 04:30:00
2:59 PM,77.0,35.6,22,30.01,-9999.0,WNW,20.7,32.2,N/A,,Clear,290,2012-10-04 04:59:00
3:00 PM,76,34,12,29.99,,WNW,20.7,,,,,290,2012-10-04 05:00:00
3:30 PM,75.2,35.6,24,29.98,-9999.0,West,18.4,-,N/A,,Clear,280,2012-10-04 05:30:00
4:00 PM,76,32,11,29.96,,West,18.4,,,,,280,2012-10-04 06:00:00
4:00 PM,77.0,32.0,19,29.98,-9999.0,West,18.4,-,N/A,,Clear,280,2012-10-04 06:00:00
4:10 PM,77.0,28.4,17,29.98,-9999.0,WNW,23.0,36.8,N/A,,Clear,290,2012-10-04 06:10:00
4:30 PM,75.2,28.4,18,29.98,-9999.0,WNW,23.0,35.7,N/A,,Clear,290,2012-10-04 06:30:00
5:00 PM,75.2,28.4,18,29.98,-9999.0,WNW,23.0,-,N/A,,Clear,290,2012-10-04 07:00:00
5:19 PM,75.2,28.4,18,29.98,-9999.0,WNW,19.6,31.1,N/A,,Clear,290,2012-10-04 07:19:00
5:30 PM,73.4,30.2,20,29.98,-9999.0,WNW,18.4,-,N/A,,Clear,290,2012-10-04 07:30:00
6:00 PM,72,31,13,29.96,,WNW,17.3,,,,,300,2012-10-04 08:00:00
6:00 PM,71.6,32.0,23,29.98,-9999.0,WNW,17.3,-,N/A,,Clear,300,2012-10-04 08:00:00
6:30 PM,68.0,33.8,28,29.98,-9999.0,NW,12.7,-,N/A,,Clear,320,2012-10-04 08:30:00
7:00 PM,66,36,22,29.96,,NNW,13.8,,,,,330,2012-10-04 09:00:00
7:00 PM,66.2,35.6,32,29.98,-9999.0,NNW,13.8,-,N/A,,Clear,330,2012-10-04 09:00:00
7:30 PM,66.2,35.6,32,29.98,-9999.0,NNW,13.8,-,N/A,,Unknown,330,2012-10-04 09:30:00
8:00 PM,66.2,35.6,32,29.98,6.2,NNW,15.0,-,N/A,,Unknown,330,2012-10-04 10:00:00
8:30 PM,64.4,37.4,37,29.98,6.2,NW,10.4,-,N/A,,Unknown,320,2012-10-04 10:30:00
9:00 PM,63,38,28,29.98,,NW,9.2,,,,,320,2012-10-04 11:00:00
9:00 PM,62.6,37.4,39,29.98,6.2,NW,9.2,-,N/A,,Unknown,320,2012-10-04 11:00:00
9:30 PM,60.8,37.4,42,29.98,6.2,NNW,8.1,-,N/A,,Unknown,330,2012-10-04 11:30:00
10:00 PM,60,39,34,29.98,,NNW,10.4,,,,,330,2012-10-04 12:00:00
10:00 PM,60.8,39.2,45,29.98,6.2,NNW,10.4,-,N/A,,Unknown,330,2012-10-04 12:00:00
10:30 PM,60.8,39.2,45,29.98,6.2,NNW,10.4,-,N/A,,Unknown,330,2012-10-04 12:30:00
11:00 PM,60.8,37.4,42,29.98,6.2,NNW,11.5,-,N/A,,Unknown,330,2012-10-04 13:00:00
11:30 PM,62.6,35.6,37,29.98,6.2,North,10.4,-,N/A,,Unknown,350,2012-10-04 13:30:00